createdAt,value
2023-03-08T00:00:46.109Z,45
2023-03-08T00:20:57.287Z,43
2023-03-08T00:40:52.932Z,44
2023-03-08T01:00:46.383Z,44
2023-03-08T01:20:49.295Z,43
2023-03-08T01:40:52.831Z,43
2023-03-08T02:00:46.922Z,43
2023-03-08T02:20:46.547Z,43
2023-03-08T02:40:46.144Z,44
2023-03-08T03:00:46.658Z,43
2023-03-08T03:20:45.859Z,43
2023-03-08T03:40:46.020Z,43
2023-03-08T04:00:47.298Z,44
2023-03-08T04:20:46.201Z,43
2023-03-08T04:40:45.766Z,43
2023-03-08T05:01:07.030Z,42
2023-03-08T05:20:47.590Z,44
2023-03-08T05:40:45.670Z,46
2023-03-08T06:00:46.297Z,47
2023-03-08T06:21:11.674Z,46
2023-03-08T06:40:47.140Z,47
2023-03-08T07:01:11.337Z,47
2023-03-08T07:21:11.289Z,48
2023-03-08T07:41:11.975Z,48
2023-03-08T08:01:14.489Z,46
2023-03-08T08:21:11.232Z,47
2023-03-08T08:41:17.262Z,46
2023-03-08T09:01:10.035Z,46
2023-03-08T09:21:15.194Z,45
2023-03-08T09:41:14.866Z,46
2023-03-08T10:01:17.466Z,44
2023-03-08T10:21:14.377Z,45
2023-03-08T10:41:13.392Z,45
2023-03-08T11:01:18.010Z,44
2023-03-08T11:21:12.520Z,45
2023-03-08T11:41:12.755Z,46
2023-03-08T12:01:12.222Z,46
2023-03-08T12:21:17.568Z,45
2023-03-08T12:41:13.176Z,45
2023-03-08T13:01:14.940Z,45
2023-03-08T13:21:15.222Z,45
2023-03-08T13:41:12.968Z,44
2023-03-08T14:01:19.018Z,45
2023-03-08T14:21:18.976Z,45
2023-03-08T14:41:13.100Z,46
2023-03-08T15:01:11.470Z,45
2023-03-08T15:21:11.618Z,45
2023-03-08T15:41:20.254Z,46
2023-03-08T16:01:17.518Z,46
2023-03-08T16:21:12.448Z,47
2023-03-08T16:41:23.439Z,46
2023-03-08T17:01:15.296Z,47
2023-03-08T17:20:46.984Z,47
2023-03-08T17:40:45.953Z,48
2023-03-08T18:00:50.938Z,50
2023-03-08T18:20:49.229Z,48
2023-03-08T18:40:45.937Z,49
2023-03-08T19:00:46.271Z,48
2023-03-08T19:20:46.067Z,48
2023-03-08T19:40:45.987Z,49
2023-03-08T20:00:46.272Z,48
2023-03-08T20:20:48.612Z,49
2023-03-08T20:40:47.571Z,48
2023-03-08T21:00:48.768Z,48
2023-03-08T21:20:48.979Z,48
2023-03-08T21:40:47.022Z,48
2023-03-08T22:00:49.512Z,48
2023-03-08T22:20:45.115Z,47
2023-03-08T22:40:46.951Z,48
2023-03-08T23:00:54.062Z,47
2023-03-08T23:20:47.530Z,46
2023-03-08T23:40:52.268Z,47
